createdAt,value
2022-11-30T00:00:20.604Z,28.42
2022-11-30T00:02:49.444Z,29.50
2022-11-30T00:05:16.247Z,32.17
2022-11-30T00:07:42.952Z,33.72
2022-11-30T00:10:09.906Z,35.10
2022-11-30T00:12:36.497Z,35.30
2022-11-30T00:15:03.329Z,33.30
2022-11-30T00:17:30.024Z,34.60
2022-11-30T00:19:56.611Z,34.20
2022-11-30T00:22:23.266Z,30.85
2022-11-30T00:24:49.998Z,29.92
2022-11-30T00:27:16.578Z,31.48
2022-11-30T00:29:43.141Z,36.40
2022-11-30T00:32:09.778Z,31.02
2022-11-30T00:34:36.342Z,36.08
2022-11-30T00:37:02.919Z,34.50
2022-11-30T00:39:34.009Z,36.05
2022-11-30T00:42:02.017Z,32.20
2022-11-30T00:44:28.672Z,35.08
2022-11-30T00:46:55.382Z,31.67
2022-11-30T00:49:22.099Z,30.02
2022-11-30T00:51:48.771Z,36.30
2022-11-30T00:54:15.408Z,28.85
2022-11-30T00:56:41.984Z,32.78
2022-11-30T00:59:08.547Z,25.77
2022-11-30T01:01:35.789Z,33.33
2022-11-30T01:04:02.690Z,31.83
2022-11-30T01:06:29.263Z,29.98
2022-11-30T01:08:55.847Z,30.88
2022-11-30T01:11:26.129Z,29.63
2022-11-30T01:13:52.822Z,30.13
2022-11-30T01:16:22.053Z,34.13
2022-11-30T01:18:48.880Z,35.17
2022-11-30T01:21:17.493Z,36.47
2022-11-30T01:23:44.296Z,37.63
2022-11-30T01:26:11.048Z,34.88
2022-11-30T01:28:37.653Z,41.40
2022-11-30T01:31:05.653Z,36.50
2022-11-30T01:33:32.977Z,33.75
2022-11-30T01:36:01.021Z,35.17
2022-11-30T01:38:31.170Z,37.67
2022-11-30T01:40:57.771Z,33.83
2022-11-30T01:43:37.619Z,39.83
2022-11-30T01:46:04.485Z,37.90
2022-11-30T01:48:31.125Z,35.88
2022-11-30T01:50:57.710Z,37.95
2022-11-30T01:53:24.513Z,39.85
2022-11-30T01:55:51.106Z,40.13
2022-11-30T01:58:20.775Z,36.95
2022-11-30T02:00:47.770Z,40.72
2022-11-30T02:03:22.540Z,34.75
2022-11-30T02:05:49.179Z,39.92
2022-11-30T02:08:15.944Z,42.67
2022-11-30T02:10:45.191Z,38.50
2022-11-30T02:13:35.153Z,40.97
2022-11-30T02:16:27.021Z,38.40
2022-11-30T02:22:12.303Z,36.15
2022-11-30T02:25:05.514Z,40.03
2022-11-30T02:30:20.568Z,41.90
2022-11-30T02:33:07.869Z,44.20
2022-11-30T02:35:36.489Z,47.20
2022-11-30T02:38:03.699Z,48.88
2022-11-30T02:40:30.308Z,43.53
2022-11-30T02:42:57.950Z,49.97
2022-11-30T02:45:38.361Z,42.88
2022-11-30T02:48:07.986Z,39.28
2022-11-30T02:50:41.685Z,39.70
2022-11-30T02:53:08.908Z,46.17
2022-11-30T02:55:35.550Z,37.35
2022-11-30T02:58:02.246Z,39.47
2022-11-30T03:00:28.855Z,39.08
2022-11-30T03:02:55.538Z,39.38
2022-11-30T03:05:22.248Z,38.17
2022-11-30T03:07:48.888Z,32.15
2022-11-30T03:10:15.638Z,40.40
2022-11-30T03:12:42.274Z,38.40
2022-11-30T03:15:09.307Z,34.70
2022-11-30T03:17:35.905Z,30.95
2022-11-30T03:20:02.544Z,25.55
2022-11-30T03:22:29.131Z,27.77
2022-11-30T03:24:55.851Z,36.47
2022-11-30T03:27:22.830Z,31.10
2022-11-30T03:29:49.414Z,31.40
2022-11-30T03:32:16.043Z,31.95
2022-11-30T03:34:42.662Z,34.80
2022-11-30T03:37:09.252Z,34.22
2022-11-30T03:39:35.840Z,35.83
2022-11-30T03:42:02.493Z,43.10
2022-11-30T03:44:29.862Z,40.78
2022-11-30T03:46:56.480Z,38.33
2022-11-30T03:49:23.092Z,38.60
2022-11-30T03:51:49.732Z,39.15
2022-11-30T03:54:16.321Z,36.33
2022-11-30T03:56:42.922Z,34.55
2022-11-30T03:59:09.602Z,31.60
2022-11-30T04:01:36.902Z,31.45
2022-11-30T04:04:03.998Z,34.05
2022-11-30T04:06:30.573Z,35.10
2022-11-30T04:08:57.142Z,35.95
2022-11-30T04:11:23.717Z,34.70
2022-11-30T04:13:50.402Z,35.85
2022-11-30T04:16:17.028Z,45.78
2022-11-30T04:18:43.682Z,37.55
2022-11-30T04:21:10.661Z,44.65
2022-11-30T04:23:38.522Z,37.35
2022-11-30T04:26:07.471Z,39.17
2022-11-30T04:28:34.395Z,34.33
2022-11-30T04:31:01.540Z,43.00
2022-11-30T04:33:28.389Z,37.75
2022-11-30T04:35:56.638Z,38.90
2022-11-30T04:38:23.784Z,37.33
2022-11-30T04:40:50.442Z,33.33
2022-11-30T04:43:17.077Z,35.38
2022-11-30T04:45:44.593Z,36.50
2022-11-30T04:48:11.188Z,38.90
2022-11-30T04:50:37.880Z,31.65
2022-11-30T04:53:04.555Z,37.58
2022-11-30T04:55:31.388Z,35.15
2022-11-30T04:57:58.035Z,32.47
2022-11-30T05:00:24.750Z,35.45
2022-11-30T05:02:53.083Z,32.17
2022-11-30T05:05:20.140Z,35.55
2022-11-30T05:07:50.651Z,33.38
2022-11-30T05:10:17.346Z,39.83
2022-11-30T05:12:43.945Z,38.22
2022-11-30T05:15:10.790Z,34.80
2022-11-30T05:17:37.389Z,40.58
2022-11-30T05:20:04.261Z,35.70
2022-11-30T05:22:30.888Z,31.58
2022-11-30T05:24:57.429Z,36.67
2022-11-30T05:27:24.035Z,37.67
2022-11-30T05:29:50.621Z,39.53
2022-11-30T05:32:17.210Z,31.88
2022-11-30T05:34:50.701Z,32.88
2022-11-30T05:37:18.357Z,35.60
2022-11-30T05:39:44.943Z,30.90
2022-11-30T05:42:11.507Z,30.30
2022-11-30T05:44:38.096Z,31.95
2022-11-30T05:47:04.862Z,30.52
2022-11-30T05:49:31.489Z,33.15
2022-11-30T05:51:58.062Z,35.47
2022-11-30T05:54:24.678Z,32.60
2022-11-30T05:56:54.628Z,35.58
2022-11-30T05:59:22.225Z,25.95
2022-11-30T06:01:49.195Z,32.97
2022-11-30T06:04:15.863Z,34.40
2022-11-30T06:06:42.492Z,29.23
2022-11-30T06:09:09.246Z,29.27
2022-11-30T06:11:35.916Z,29.33
2022-11-30T06:14:02.509Z,28.27
2022-11-30T06:16:29.177Z,28.38
2022-11-30T06:18:55.864Z,30.80
2022-11-30T06:21:24.618Z,25.00
2022-11-30T06:23:52.283Z,24.90
2022-11-30T06:26:18.884Z,23.30
2022-11-30T06:28:48.524Z,28.58
2022-11-30T06:31:15.802Z,28.25
2022-11-30T06:33:42.547Z,28.33
2022-11-30T06:36:09.445Z,26.45
2022-11-30T06:38:36.055Z,26.50
2022-11-30T06:41:04.830Z,28.42
2022-11-30T06:43:34.197Z,26.63
2022-11-30T06:46:01.338Z,29.67
2022-11-30T06:48:27.985Z,20.58
2022-11-30T06:50:55.037Z,24.50
2022-11-30T06:53:21.756Z,22.35
2022-11-30T06:55:48.389Z,24.63
2022-11-30T06:58:14.968Z,30.40
2022-11-30T07:00:42.713Z,27.35
2022-11-30T07:03:10.576Z,25.48
2022-11-30T07:05:43.405Z,30.40
2022-11-30T07:08:11.288Z,31.88
2022-11-30T07:10:41.358Z,28.15
2022-11-30T07:13:17.042Z,29.83
2022-11-30T07:15:43.892Z,20.83
2022-11-30T07:18:10.790Z,23.15
2022-11-30T07:20:37.875Z,24.33
2022-11-30T07:23:24.770Z,26.58
2022-11-30T07:26:06.838Z,24.92
2022-11-30T07:28:36.172Z,23.67
2022-11-30T07:31:19.400Z,30.95
2022-11-30T07:33:46.697Z,23.23
2022-11-30T07:36:13.395Z,24.88
2022-11-30T07:38:40.322Z,25.77
2022-11-30T07:41:07.080Z,25.75
2022-11-30T07:43:33.769Z,31.15
2022-11-30T07:46:00.746Z,28.85
2022-11-30T07:48:27.629Z,30.55
2022-11-30T07:50:54.330Z,38.42
2022-11-30T07:53:21.063Z,24.88
2022-11-30T07:55:50.538Z,28.27
2022-11-30T07:58:19.563Z,33.93
2022-11-30T08:00:46.362Z,25.60
2022-11-30T08:03:13.489Z,30.10
2022-11-30T08:05:40.126Z,32.10
2022-11-30T08:08:06.858Z,27.67
2022-11-30T08:10:33.485Z,28.42
2022-11-30T08:13:00.125Z,27.23
2022-11-30T08:15:32.514Z,29.60
2022-11-30T08:18:05.210Z,32.53
2022-11-30T08:20:31.787Z,29.85
2022-11-30T08:22:58.640Z,32.75
2022-11-30T08:25:25.281Z,29.65
2022-11-30T08:27:51.885Z,29.38
2022-11-30T08:30:20.812Z,33.42
2022-11-30T08:32:47.457Z,35.53
2022-11-30T08:35:14.055Z,31.02
2022-11-30T08:37:40.689Z,31.50
2022-11-30T08:40:07.760Z,32.63
2022-11-30T08:42:34.409Z,31.25
2022-11-30T08:45:01.351Z,31.38
2022-11-30T08:47:30.333Z,31.45
2022-11-30T08:49:57.787Z,30.40
2022-11-30T08:52:24.586Z,39.28
2022-11-30T08:54:51.685Z,33.95
2022-11-30T08:57:20.270Z,30.98
2022-11-30T08:59:47.044Z,29.10
2022-11-30T09:02:17.831Z,28.08
2022-11-30T09:04:45.628Z,30.67
2022-11-30T09:07:12.230Z,29.83
2022-11-30T09:09:39.097Z,28.50
2022-11-30T09:12:06.781Z,30.58
2022-11-30T09:14:33.595Z,23.65
2022-11-30T09:17:00.242Z,35.30
2022-11-30T09:19:26.877Z,30.98
2022-11-30T09:21:53.480Z,35.13
2022-11-30T09:24:20.743Z,43.47
2022-11-30T09:26:47.632Z,27.95
2022-11-30T09:29:14.208Z,29.08
2022-11-30T09:31:40.816Z,32.17
2022-11-30T09:34:07.422Z,26.88
2022-11-30T09:36:36.528Z,36.58
2022-11-30T09:39:03.132Z,29.95
2022-11-30T09:45:02.532Z,27.90
2022-11-30T09:47:55.229Z,31.60
2022-11-30T09:50:23.492Z,25.35
2022-11-30T09:52:55.471Z,28.60
2022-11-30T09:55:27.911Z,34.03
2022-11-30T09:57:56.855Z,25.23
2022-11-30T10:00:24.099Z,27.30
2022-11-30T10:02:51.683Z,28.42
2022-11-30T10:05:21.068Z,31.20
2022-11-30T10:08:12.221Z,28.33
2022-11-30T10:10:56.013Z,23.95
2022-11-30T10:13:43.909Z,33.33
2022-11-30T10:16:35.284Z,26.65
2022-11-30T10:19:41.710Z,22.30
2022-11-30T10:22:31.934Z,21.73
2022-11-30T10:25:23.470Z,28.27
2022-11-30T10:27:53.176Z,23.60
2022-11-30T10:30:22.707Z,23.67
2022-11-30T10:32:53.240Z,36.97
2022-11-30T10:35:41.584Z,29.98
2022-11-30T10:38:21.750Z,27.70
2022-11-30T10:40:54.332Z,33.30
2022-11-30T10:45:56.120Z,25.63
2022-11-30T10:48:41.616Z,30.10
2022-11-30T10:51:08.334Z,24.67
2022-11-30T10:53:35.066Z,26.00
2022-11-30T10:56:10.948Z,22.73
2022-11-30T10:58:58.944Z,22.98
2022-11-30T11:01:30.907Z,25.17
2022-11-30T11:06:57.832Z,20.15
2022-11-30T11:09:37.343Z,23.05
2022-11-30T11:12:25.384Z,19.63
2022-11-30T11:15:17.457Z,28.73
2022-11-30T11:17:44.112Z,19.10
2022-11-30T11:20:34.771Z,18.17
2022-11-30T11:23:02.903Z,18.02
2022-11-30T11:25:34.805Z,17.33
2022-11-30T11:28:08.853Z,16.38
2022-11-30T11:30:36.146Z,20.00
2022-11-30T11:33:15.950Z,19.55
2022-11-30T11:35:51.326Z,18.08
2022-11-30T11:38:45.787Z,17.85
2022-11-30T11:41:33.452Z,16.52
2022-11-30T11:44:21.630Z,15.23
2022-11-30T11:46:58.034Z,22.08
2022-11-30T11:49:28.573Z,20.30
2022-11-30T11:52:15.886Z,24.42
2022-11-30T11:54:47.436Z,23.35
2022-11-30T11:57:17.224Z,18.42
2022-11-30T11:59:57.199Z,19.92
2022-11-30T12:02:32.487Z,19.88
2022-11-30T12:05:36.755Z,25.48
2022-11-30T12:08:22.319Z,18.52
2022-11-30T12:11:09.928Z,24.27
2022-11-30T12:13:39.048Z,28.33
2022-11-30T12:16:20.241Z,24.77
2022-11-30T12:18:58.675Z,23.95
2022-11-30T12:21:52.413Z,35.13
2022-11-30T12:24:53.435Z,27.88
2022-11-30T12:27:39.958Z,27.35
2022-11-30T12:30:33.141Z,30.13
2022-11-30T12:33:11.806Z,31.15
2022-11-30T12:36:00.383Z,32.25
2022-11-30T12:38:49.160Z,27.60
2022-11-30T12:44:22.223Z,32.80
2022-11-30T12:47:28.952Z,29.00
2022-11-30T12:50:25.425Z,26.25
2022-11-30T12:53:29.936Z,34.33
2022-11-30T12:59:17.376Z,22.58
2022-11-30T13:02:13.903Z,25.77
2022-11-30T13:04:46.637Z,26.77
2022-11-30T13:10:18.028Z,27.23
2022-11-30T13:12:45.833Z,27.88
2022-11-30T13:15:16.651Z,23.88
2022-11-30T13:17:44.017Z,29.02
2022-11-30T13:20:48.543Z,26.80
2022-11-30T13:23:38.907Z,31.88
2022-11-30T13:26:42.898Z,20.52
2022-11-30T13:29:49.692Z,22.40
2022-11-30T13:32:56.292Z,22.52
2022-11-30T13:35:32.867Z,25.88
2022-11-30T13:41:04.279Z,23.13
2022-11-30T13:43:34.137Z,22.17
2022-11-30T13:46:21.104Z,21.40
2022-11-30T13:48:47.876Z,22.02
2022-11-30T13:51:34.864Z,19.30
2022-11-30T13:54:37.389Z,24.90
2022-11-30T13:57:15.237Z,29.02
2022-11-30T13:59:48.331Z,20.30
2022-11-30T14:05:46.692Z,23.83
2022-11-30T14:08:30.554Z,35.42
2022-11-30T14:13:54.115Z,23.33
2022-11-30T14:16:22.862Z,26.75
2022-11-30T14:18:49.629Z,25.75
2022-11-30T14:21:31.341Z,30.17
2022-11-30T14:24:01.278Z,28.45
2022-11-30T14:26:31.065Z,27.27
2022-11-30T14:29:16.830Z,27.15
2022-11-30T14:32:08.447Z,30.27
2022-11-30T14:34:51.394Z,27.63
2022-11-30T14:37:26.561Z,29.77
2022-11-30T14:39:56.478Z,27.35
2022-11-30T14:42:24.894Z,25.40
2022-11-30T14:44:51.590Z,31.25
2022-11-30T14:47:30.915Z,32.42
2022-11-30T14:49:58.475Z,30.88
2022-11-30T14:53:03.940Z,30.90
2022-11-30T14:55:39.988Z,31.63
2022-11-30T15:01:03.693Z,38.10
2022-11-30T15:03:37.357Z,29.92
2022-11-30T15:06:07.058Z,30.42
2022-11-30T15:08:36.866Z,35.08
2022-11-30T15:11:05.259Z,30.02
2022-11-30T15:13:31.896Z,35.33
2022-11-30T15:15:58.508Z,34.63
2022-11-30T15:18:25.595Z,33.60
2022-11-30T15:21:02.144Z,34.00
2022-11-30T15:23:28.941Z,30.70
2022-11-30T15:25:59.328Z,32.25
2022-11-30T15:28:31.233Z,28.35
2022-11-30T15:30:58.711Z,30.88
2022-11-30T15:33:29.016Z,29.15
2022-11-30T15:38:43.264Z,28.75
2022-11-30T15:41:18.431Z,32.03
2022-11-30T15:43:47.339Z,31.08
2022-11-30T15:46:37.742Z,28.50
2022-11-30T15:49:28.719Z,30.48
2022-11-30T15:52:19.308Z,29.08
2022-11-30T15:54:52.631Z,29.67
2022-11-30T15:57:19.787Z,34.55
2022-11-30T16:00:07.950Z,32.55
2022-11-30T16:02:35.971Z,30.45
2022-11-30T16:05:09.574Z,38.05
2022-11-30T16:07:55.705Z,33.83
2022-11-30T16:10:24.950Z,26.50
2022-11-30T16:12:52.500Z,35.88
2022-11-30T16:15:28.182Z,36.05
2022-11-30T16:18:00.246Z,31.85
2022-11-30T16:20:26.797Z,35.50
2022-11-30T16:22:53.509Z,36.83
2022-11-30T16:25:22.370Z,43.33
2022-11-30T16:27:49.236Z,30.42
2022-11-30T16:30:18.445Z,35.40
2022-11-30T16:32:45.210Z,32.15
2022-11-30T16:35:18.354Z,29.63
2022-11-30T16:37:44.956Z,38.72
2022-11-30T16:40:13.435Z,29.67
2022-11-30T16:42:40.526Z,38.33
2022-11-30T16:45:16.029Z,35.00
2022-11-30T16:47:43.558Z,33.88
2022-11-30T16:50:11.698Z,49.90
2022-11-30T16:52:39.016Z,33.10
2022-11-30T16:55:15.362Z,29.63
2022-11-30T16:57:42.160Z,41.85
2022-11-30T17:00:10.292Z,33.40
2022-11-30T17:02:38.698Z,37.72
2022-11-30T17:05:06.277Z,33.67
2022-11-30T17:07:33.761Z,34.50
2022-11-30T17:10:00.418Z,38.17
2022-11-30T17:12:27.052Z,29.85
2022-11-30T17:14:53.673Z,29.63
2022-11-30T17:17:20.339Z,26.25
2022-11-30T17:19:47.075Z,31.30
2022-11-30T17:22:13.712Z,34.85
2022-11-30T17:24:40.420Z,32.17
2022-11-30T17:27:07.081Z,36.55
2022-11-30T17:29:33.721Z,28.10
2022-11-30T17:32:00.432Z,30.80
2022-11-30T17:34:27.148Z,37.95
2022-11-30T17:36:56.278Z,31.10
2022-11-30T17:39:23.575Z,29.88
2022-11-30T17:41:50.359Z,24.95
2022-11-30T17:44:17.555Z,28.45
2022-11-30T17:46:48.032Z,28.50
2022-11-30T17:49:15.162Z,28.00
2022-11-30T17:51:41.823Z,26.27
2022-11-30T17:54:08.550Z,30.45
2022-11-30T17:56:35.832Z,34.75
2022-11-30T17:59:02.650Z,33.03
2022-11-30T18:01:29.506Z,32.45
2022-11-30T18:03:56.498Z,27.42
2022-11-30T18:06:23.188Z,28.00
2022-11-30T18:08:49.923Z,33.17
2022-11-30T18:11:20.038Z,31.75
2022-11-30T18:13:47.565Z,29.45
2022-11-30T18:16:17.493Z,35.83
2022-11-30T18:18:47.717Z,33.97
2022-11-30T18:21:17.994Z,32.75
2022-11-30T18:23:44.714Z,30.10
2022-11-30T18:26:12.650Z,31.50
2022-11-30T18:28:39.366Z,26.75
2022-11-30T18:31:06.686Z,33.92
2022-11-30T18:33:34.328Z,30.50
2022-11-30T18:36:01.121Z,35.95
2022-11-30T18:38:30.534Z,34.53
2022-11-30T18:40:59.478Z,30.67
2022-11-30T18:43:26.172Z,32.88
2022-11-30T18:45:52.992Z,34.60
2022-11-30T18:48:19.726Z,35.92
2022-11-30T18:50:46.435Z,39.47
2022-11-30T18:53:18.107Z,38.58
2022-11-30T18:55:45.124Z,36.53
2022-11-30T18:58:11.786Z,39.38
2022-11-30T19:00:38.414Z,31.52
2022-11-30T19:03:05.244Z,38.60
2022-11-30T19:05:31.901Z,33.33
2022-11-30T19:08:00.146Z,35.08
2022-11-30T19:10:26.843Z,30.25
2022-11-30T19:12:53.466Z,48.35
2022-11-30T19:15:20.395Z,35.45
2022-11-30T19:17:46.992Z,36.17
2022-11-30T19:20:14.149Z,35.88
2022-11-30T19:22:40.753Z,34.63
2022-11-30T19:25:08.829Z,35.38
2022-11-30T19:27:36.053Z,39.53
2022-11-30T19:30:05.789Z,37.22
2022-11-30T19:32:33.255Z,35.38
2022-11-30T19:34:59.909Z,43.15
2022-11-30T19:37:26.514Z,41.13
2022-11-30T19:39:53.146Z,33.50
2022-11-30T19:42:19.746Z,34.17
2022-11-30T19:44:46.832Z,35.53
2022-11-30T19:47:13.723Z,36.95
2022-11-30T19:49:40.394Z,37.63
2022-11-30T19:52:06.958Z,33.88
2022-11-30T19:54:33.736Z,33.03
2022-11-30T19:57:00.330Z,36.25
2022-11-30T19:59:26.906Z,38.80
2022-11-30T20:01:53.553Z,39.05
2022-11-30T20:04:20.258Z,38.10
2022-11-30T20:06:46.840Z,39.95
2022-11-30T20:09:13.455Z,37.78
2022-11-30T20:11:40.120Z,36.33
2022-11-30T20:14:06.764Z,35.30
2022-11-30T20:16:33.531Z,35.30
2022-11-30T20:19:01.032Z,37.50
2022-11-30T20:21:29.336Z,36.92
2022-11-30T20:23:59.640Z,43.65
2022-11-30T20:26:30.196Z,42.92
2022-11-30T20:28:57.099Z,34.97
2022-11-30T20:31:24.151Z,43.08
2022-11-30T20:33:51.016Z,37.03
2022-11-30T20:36:18.216Z,34.13
2022-11-30T20:38:44.845Z,36.97
2022-11-30T20:41:12.761Z,42.75
2022-11-30T20:43:39.391Z,44.85
2022-11-30T20:46:14.271Z,39.92
2022-11-30T20:48:40.987Z,42.70
2022-11-30T20:53:57.151Z,36.70
2022-11-30T20:56:24.064Z,36.97
2022-11-30T20:58:50.689Z,39.63
2022-11-30T21:01:19.237Z,39.80
2022-11-30T21:03:46.552Z,39.63
2022-11-30T21:06:13.341Z,45.67
2022-11-30T21:08:40.138Z,40.45
2022-11-30T21:11:14.708Z,44.78
2022-11-30T21:13:41.708Z,43.17
2022-11-30T21:16:08.534Z,40.65
2022-11-30T21:18:35.722Z,41.65
2022-11-30T21:21:03.886Z,40.47
2022-11-30T21:23:30.634Z,42.28
2022-11-30T21:26:02.270Z,44.40
2022-11-30T21:28:32.322Z,45.83
2022-11-30T21:33:29.774Z,37.50
2022-11-30T21:35:56.521Z,44.22
2022-11-30T21:38:23.087Z,40.17
2022-11-30T21:40:58.083Z,49.75
2022-11-30T21:43:24.770Z,40.30
2022-11-30T21:45:59.569Z,41.15
2022-11-30T21:48:28.253Z,41.63
2022-11-30T21:51:03.611Z,43.28
2022-11-30T21:53:30.364Z,45.40
2022-11-30T21:56:02.301Z,42.08
2022-11-30T21:58:30.444Z,42.78
2022-11-30T22:00:57.391Z,40.53
2022-11-30T22:03:24.800Z,36.90
2022-11-30T22:06:08.372Z,40.63
2022-11-30T22:08:35.067Z,43.10
2022-11-30T22:11:03.394Z,38.30
2022-11-30T22:13:30.345Z,36.42
2022-11-30T22:15:59.050Z,37.30
2022-11-30T22:18:25.740Z,41.08
2022-11-30T22:20:52.354Z,39.72
2022-11-30T22:23:18.967Z,39.28
2022-11-30T22:25:45.749Z,36.25
2022-11-30T22:28:12.345Z,37.78
2022-11-30T22:30:38.927Z,41.88
2022-11-30T22:33:05.510Z,40.33
2022-11-30T22:35:32.100Z,41.42
2022-11-30T22:37:58.681Z,35.97
2022-11-30T22:40:25.300Z,37.15
2022-11-30T22:42:51.881Z,35.13
2022-11-30T22:45:18.566Z,35.28
2022-11-30T22:47:45.140Z,39.25
2022-11-30T22:50:12.120Z,46.13
2022-11-30T22:53:01.912Z,41.92
2022-11-30T22:55:25.483Z,42.40
2022-11-30T22:57:52.983Z,39.53
2022-11-30T23:00:19.714Z,41.00
2022-11-30T23:02:48.796Z,41.88
2022-11-30T23:05:15.413Z,40.88
2022-11-30T23:07:42.035Z,43.35
2022-11-30T23:10:09.308Z,46.15
2022-11-30T23:12:58.650Z,44.40
2022-11-30T23:15:22.468Z,44.58
2022-11-30T23:17:49.114Z,51.08
2022-11-30T23:20:15.676Z,50.17
2022-11-30T23:22:42.208Z,51.58
2022-11-30T23:25:09.069Z,54.38
2022-11-30T23:27:35.726Z,51.58
2022-11-30T23:30:02.564Z,48.47
2022-11-30T23:32:29.137Z,44.50
2022-11-30T23:34:55.725Z,54.80
2022-11-30T23:37:22.324Z,49.55
2022-11-30T23:39:49.117Z,52.35
2022-11-30T23:42:15.866Z,45.90
2022-11-30T23:44:42.436Z,48.63
2022-11-30T23:47:11.200Z,54.38
2022-11-30T23:49:39.615Z,50.42
2022-11-30T23:52:06.225Z,44.17
2022-11-30T23:54:32.833Z,50.67
2022-11-30T23:56:59.427Z,49.38
2022-11-30T23:59:26.039Z,50.60
